createdAt,value
2019-02-18T00:00:34.785Z,99.90
2019-02-18T00:03:03.410Z,99.90
2019-02-18T00:05:32.006Z,99.90
2019-02-18T00:08:00.637Z,99.90
2019-02-18T00:10:29.231Z,99.90
2019-02-18T00:12:57.820Z,99.90
2019-02-18T00:15:26.398Z,99.90
2019-02-18T00:17:55.075Z,99.90
2019-02-18T00:20:23.707Z,99.90
2019-02-18T00:22:52.313Z,99.90
2019-02-18T00:25:20.946Z,99.90
2019-02-18T00:27:49.555Z,99.90
2019-02-18T00:30:18.254Z,99.90
2019-02-18T00:32:46.928Z,99.90
2019-02-18T00:35:15.562Z,99.90
2019-02-18T00:37:44.169Z,99.90
2019-02-18T00:40:12.805Z,99.90
2019-02-18T00:42:41.380Z,99.90
2019-02-18T00:45:12.414Z,99.90
2019-02-18T00:47:41.000Z,99.90
2019-02-18T00:50:10.738Z,99.90
2019-02-18T00:52:39.445Z,99.90
2019-02-18T00:55:09.099Z,99.90
2019-02-18T00:57:37.681Z,99.90
2019-02-18T01:00:11.940Z,99.90
2019-02-18T01:02:40.652Z,99.90
2019-02-18T01:05:09.387Z,99.90
2019-02-18T01:07:38.089Z,99.90
2019-02-18T01:10:09.718Z,99.90
2019-02-18T01:12:38.292Z,99.90
2019-02-18T01:15:12.353Z,99.90
2019-02-18T01:17:41.026Z,99.90
2019-02-18T01:20:12.443Z,99.90
2019-02-18T01:22:41.181Z,99.90
2019-02-18T01:25:12.305Z,99.90
2019-02-18T01:27:41.031Z,99.90
2019-02-18T01:30:12.745Z,99.90
2019-02-18T01:32:41.414Z,99.90
2019-02-18T01:35:10.120Z,99.90
2019-02-18T01:37:45.671Z,99.90
2019-02-18T01:40:11.809Z,99.90
2019-02-18T01:42:40.468Z,99.90
2019-02-18T01:45:11.583Z,99.90
2019-02-18T01:47:50.715Z,99.90
2019-02-18T01:50:18.333Z,99.90
2019-02-18T01:52:46.957Z,99.90
2019-02-18T01:55:15.589Z,99.90
2019-02-18T01:57:44.340Z,99.90
2019-02-18T02:00:15.254Z,99.90
2019-02-18T02:02:43.958Z,99.90
2019-02-18T02:05:15.262Z,99.90
2019-02-18T02:07:44.090Z,99.90
2019-02-18T02:10:15.185Z,99.90
2019-02-18T02:12:43.818Z,99.90
2019-02-18T02:15:24.359Z,99.90
2019-02-18T02:17:53.005Z,99.90
2019-02-18T02:20:21.643Z,99.90
2019-02-18T02:22:50.375Z,99.90
2019-02-18T02:25:19.008Z,99.90
2019-02-18T02:27:47.676Z,99.90
2019-02-18T02:30:16.384Z,99.90
2019-02-18T02:32:45.070Z,99.90
2019-02-18T02:35:13.630Z,99.90
2019-02-18T02:37:42.234Z,99.90
2019-02-18T02:40:11.007Z,99.90
2019-02-18T02:42:39.671Z,99.90
2019-02-18T02:45:09.082Z,99.90
2019-02-18T02:47:37.686Z,99.90
2019-02-18T02:50:07.491Z,99.90
2019-02-18T02:52:36.233Z,99.90
2019-02-18T02:55:06.519Z,99.90
2019-02-18T02:57:35.172Z,99.90
2019-02-18T03:00:06.093Z,99.90
2019-02-18T03:02:34.797Z,99.90
2019-02-18T03:05:04.359Z,99.90
2019-02-18T03:07:32.970Z,99.90
2019-02-18T03:10:01.605Z,99.90
2019-02-18T03:12:30.167Z,99.90
2019-02-18T03:14:58.847Z,99.90
2019-02-18T03:17:27.578Z,99.90
2019-02-18T03:19:56.143Z,99.90
2019-02-18T03:22:24.811Z,99.90
2019-02-18T03:25:17.101Z,99.90
2019-02-18T03:27:45.846Z,99.90
2019-02-18T03:30:35.544Z,99.90
2019-02-18T03:33:06.400Z,99.90
2019-02-18T03:35:35.039Z,99.90
2019-02-18T03:38:03.780Z,99.90
2019-02-18T03:40:32.424Z,99.90
2019-02-18T03:43:01.161Z,99.90
2019-02-18T03:45:29.739Z,99.90
2019-02-18T03:47:58.495Z,99.90
2019-02-18T03:50:27.203Z,99.90
2019-02-18T03:52:55.937Z,99.90
2019-02-18T03:55:24.773Z,99.90
2019-02-18T03:58:03.509Z,99.90
2019-02-18T04:00:30.351Z,99.90
2019-02-18T04:02:59.064Z,99.90
2019-02-18T04:05:27.802Z,99.90
2019-02-18T04:07:56.446Z,99.90
2019-02-18T04:10:25.093Z,99.90
2019-02-18T04:12:53.759Z,99.90
2019-02-18T04:15:22.406Z,99.90
2019-02-18T04:17:51.152Z,99.90
2019-02-18T04:20:19.795Z,99.90
2019-02-18T04:22:48.420Z,99.90
2019-02-18T04:25:17.061Z,99.90
2019-02-18T04:27:45.662Z,99.90
2019-02-18T04:30:14.389Z,99.90
2019-02-18T04:32:43.020Z,99.90
2019-02-18T04:35:11.750Z,99.90
2019-02-18T04:37:40.403Z,99.90
2019-02-18T04:40:09.342Z,99.90
2019-02-18T04:42:37.915Z,99.90
2019-02-18T04:45:08.964Z,99.90
2019-02-18T04:47:37.605Z,99.90
2019-02-18T04:50:08.339Z,99.90
2019-02-18T04:52:36.983Z,99.90
2019-02-18T04:55:08.812Z,99.90
2019-02-18T04:57:37.511Z,99.90
2019-02-18T05:00:08.665Z,99.90
2019-02-18T05:02:37.455Z,99.90
2019-02-18T05:05:10.586Z,99.90
2019-02-18T05:07:39.187Z,99.90
2019-02-18T05:10:09.967Z,99.90
2019-02-18T05:12:38.589Z,99.90
2019-02-18T05:15:08.792Z,99.90
2019-02-18T05:17:37.496Z,99.90
2019-02-18T05:20:07.691Z,99.90
2019-02-18T05:22:36.321Z,99.90
2019-02-18T05:25:07.182Z,99.90
2019-02-18T05:27:35.933Z,99.90
2019-02-18T05:30:07.050Z,99.90
2019-02-18T05:32:35.630Z,99.90
2019-02-18T05:35:04.369Z,99.90
2019-02-18T05:37:32.998Z,99.90
2019-02-18T05:40:01.605Z,99.90
2019-02-18T05:42:30.264Z,99.90
2019-02-18T05:44:58.926Z,99.90
2019-02-18T05:47:27.491Z,99.90
2019-02-18T05:49:56.218Z,99.90
2019-02-18T05:52:24.891Z,99.90
2019-02-18T05:54:53.467Z,99.90
2019-02-18T05:57:22.897Z,99.90
2019-02-18T05:59:51.930Z,99.90
2019-02-18T06:02:22.067Z,99.90
2019-02-18T06:04:50.674Z,99.90
2019-02-18T06:07:19.388Z,99.90
2019-02-18T06:09:48.090Z,99.90
2019-02-18T06:12:16.669Z,99.90
2019-02-18T06:14:45.294Z,99.90
2019-02-18T06:17:14.000Z,99.90
2019-02-18T06:19:42.679Z,99.90
2019-02-18T06:22:11.257Z,99.90
2019-02-18T06:24:39.898Z,99.90
2019-02-18T06:27:08.508Z,99.90
2019-02-18T06:29:37.101Z,99.90
2019-02-18T06:32:05.847Z,99.90
2019-02-18T06:34:34.480Z,99.90
2019-02-18T06:37:03.142Z,99.90
2019-02-18T06:39:40.910Z,99.90
2019-02-18T06:42:02.078Z,99.90
2019-02-18T06:44:35.175Z,99.90
2019-02-18T06:47:05.756Z,99.90
2019-02-18T06:49:34.358Z,99.90
2019-02-18T06:52:02.991Z,99.90
2019-02-18T06:54:31.581Z,99.90
2019-02-18T06:57:01.873Z,99.90
2019-02-18T06:59:32.105Z,99.90
2019-02-18T07:02:05.224Z,99.90
2019-02-18T07:04:35.438Z,99.90
2019-02-18T07:07:11.594Z,99.90
2019-02-18T07:09:50.823Z,99.90
2019-02-18T07:12:13.924Z,99.90
2019-02-18T07:14:42.586Z,99.90
2019-02-18T07:17:11.322Z,99.90
2019-02-18T07:19:39.887Z,99.90
2019-02-18T07:22:08.471Z,99.90
2019-02-18T07:24:37.120Z,99.90
2019-02-18T07:27:05.782Z,99.90
2019-02-18T07:29:34.459Z,99.90
2019-02-18T07:32:03.170Z,99.90
2019-02-18T07:34:31.767Z,99.90
2019-02-18T07:37:00.431Z,99.90
2019-02-18T07:39:29.240Z,99.90
2019-02-18T07:41:59.279Z,99.90
2019-02-18T07:44:27.867Z,99.90
2019-02-18T07:46:56.538Z,99.90
2019-02-18T07:49:25.173Z,99.90
2019-02-18T07:51:53.778Z,99.90
2019-02-18T07:54:22.587Z,99.90
2019-02-18T07:56:51.187Z,99.90
2019-02-18T07:59:19.827Z,99.90
2019-02-18T08:01:48.430Z,99.90
2019-02-18T08:04:17.068Z,99.90
2019-02-18T08:06:45.801Z,99.90
2019-02-18T08:09:14.358Z,99.90
2019-02-18T08:11:42.957Z,99.90
2019-02-18T08:14:11.596Z,99.90
2019-02-18T08:16:40.233Z,99.90
2019-02-18T08:19:08.895Z,99.90
2019-02-18T08:21:37.531Z,99.90
2019-02-18T08:24:06.202Z,99.90
2019-02-18T08:26:34.903Z,99.90
2019-02-18T08:29:03.702Z,99.90
2019-02-18T08:31:32.276Z,99.90
2019-02-18T08:34:00.866Z,99.90
2019-02-18T08:36:29.438Z,99.90
2019-02-18T08:38:58.051Z,99.90
2019-02-18T08:41:26.618Z,99.90
2019-02-18T08:43:55.284Z,99.90
2019-02-18T08:46:23.914Z,99.90
2019-02-18T08:48:52.583Z,99.90
2019-02-18T08:51:21.210Z,99.90
2019-02-18T08:53:49.814Z,99.90
2019-02-18T08:56:18.379Z,99.90
2019-02-18T08:58:47.005Z,99.90
2019-02-18T09:01:15.678Z,99.90
2019-02-18T09:03:44.420Z,99.90
2019-02-18T09:06:13.081Z,99.90
2019-02-18T09:08:41.624Z,99.90
2019-02-18T09:11:10.362Z,99.90
2019-02-18T09:13:38.923Z,99.90
2019-02-18T09:16:07.608Z,99.90
2019-02-18T09:18:36.157Z,99.90
2019-02-18T09:21:04.892Z,99.90
2019-02-18T09:23:51.279Z,99.90
2019-02-18T09:26:20.090Z,99.90
2019-02-18T09:28:48.654Z,99.90
2019-02-18T09:31:19.031Z,99.90
2019-02-18T09:33:47.597Z,99.90
2019-02-18T09:36:16.254Z,99.90
2019-02-18T09:38:44.923Z,99.90
2019-02-18T09:41:13.555Z,99.90
2019-02-18T09:43:42.152Z,99.90
2019-02-18T09:46:10.866Z,99.90
2019-02-18T09:48:39.699Z,99.90
2019-02-18T09:51:08.439Z,99.90
2019-02-18T09:53:37.262Z,99.90
2019-02-18T09:56:05.996Z,99.10
2019-02-18T09:58:34.561Z,98.50
2019-02-18T10:01:03.219Z,97.70
2019-02-18T10:03:32.401Z,97.60
2019-02-18T10:06:02.043Z,97.40
2019-02-18T10:08:30.843Z,97.90
2019-02-18T10:11:00.310Z,97.30
2019-02-18T10:13:29.098Z,96.70
2019-02-18T10:15:57.726Z,95.70
2019-02-18T10:18:26.319Z,94.80
2019-02-18T10:20:55.061Z,93.10
2019-02-18T10:23:23.692Z,92.30
2019-02-18T10:25:52.282Z,90.00
2019-02-18T10:28:21.005Z,87.20
2019-02-18T10:30:49.796Z,82.50
2019-02-18T10:33:18.611Z,80.50
2019-02-18T10:35:47.398Z,72.10
2019-02-18T10:38:16.123Z,65.40
2019-02-18T10:40:44.903Z,60.50
2019-02-18T10:43:13.518Z,54.00
2019-02-18T10:45:42.311Z,51.80
2019-02-18T10:48:11.082Z,48.40
2019-02-18T10:50:40.458Z,47.30
2019-02-18T10:53:09.174Z,45.50
2019-02-18T10:55:37.847Z,43.10
2019-02-18T10:58:06.491Z,42.80
2019-02-18T11:00:35.241Z,41.50
2019-02-18T11:03:04.019Z,41.50
2019-02-18T11:05:32.694Z,40.20
2019-02-18T11:08:01.403Z,39.00
2019-02-18T11:10:30.082Z,37.80
2019-02-18T11:12:58.805Z,36.90
2019-02-18T11:15:27.863Z,38.70
2019-02-18T11:17:56.567Z,40.10
2019-02-18T11:20:25.255Z,39.10
2019-02-18T11:22:53.991Z,38.60
2019-02-18T11:25:22.765Z,39.60
2019-02-18T11:27:51.483Z,39.90
2019-02-18T11:30:20.759Z,42.00
2019-02-18T11:32:49.463Z,41.50
2019-02-18T11:35:18.242Z,41.50
2019-02-18T11:37:47.042Z,40.10
2019-02-18T11:40:23.803Z,40.30
2019-02-18T11:42:55.923Z,40.80
2019-02-18T11:45:28.119Z,39.80
2019-02-18T11:47:56.875Z,39.30
2019-02-18T11:50:25.601Z,39.40
2019-02-18T11:52:54.445Z,37.60
2019-02-18T11:55:23.254Z,37.80
2019-02-18T11:57:52.016Z,38.90
2019-02-18T12:00:20.788Z,40.00
2019-02-18T12:02:49.581Z,37.80
2019-02-18T12:05:18.319Z,38.40
2019-02-18T12:07:46.996Z,38.20
2019-02-18T12:10:15.720Z,39.30
2019-02-18T12:12:44.372Z,38.40
2019-02-18T12:15:15.007Z,37.30
2019-02-18T12:17:43.756Z,36.00
2019-02-18T12:20:14.489Z,36.70
2019-02-18T12:22:43.208Z,37.50
2019-02-18T12:25:13.300Z,37.70
2019-02-18T12:27:42.439Z,37.60
2019-02-18T12:30:15.960Z,37.80
2019-02-18T12:32:44.683Z,39.20
2019-02-18T12:35:13.633Z,39.10
2019-02-18T12:37:42.349Z,38.40
2019-02-18T12:40:12.691Z,39.80
2019-02-18T12:42:42.461Z,40.00
2019-02-18T12:45:12.725Z,41.10
2019-02-18T12:47:41.770Z,40.60
2019-02-18T12:50:11.653Z,41.70
2019-02-18T12:52:41.417Z,41.80
2019-02-18T12:55:11.811Z,41.10
2019-02-18T12:57:40.849Z,41.00
2019-02-18T13:00:13.590Z,41.60
2019-02-18T13:02:44.602Z,41.70
2019-02-18T13:05:13.975Z,41.40
2019-02-18T13:07:42.812Z,40.80
2019-02-18T13:10:13.311Z,40.00
2019-02-18T13:12:42.387Z,39.70
2019-02-18T13:15:16.778Z,38.70
2019-02-18T13:17:45.509Z,39.20
2019-02-18T13:20:14.465Z,38.80
2019-02-18T13:22:43.322Z,38.80
2019-02-18T13:25:13.699Z,37.60
2019-02-18T13:27:44.025Z,40.10
2019-02-18T13:30:15.670Z,38.70
2019-02-18T13:32:44.441Z,38.90
2019-02-18T13:35:26.236Z,38.20
2019-02-18T13:37:55.106Z,36.80
2019-02-18T13:40:24.631Z,36.50
2019-02-18T13:42:53.516Z,36.80
2019-02-18T13:45:23.774Z,36.20
2019-02-18T13:47:52.768Z,37.80
2019-02-18T13:50:21.587Z,37.20
2019-02-18T13:52:50.361Z,37.60
2019-02-18T13:55:19.906Z,37.50
2019-02-18T13:57:48.672Z,36.90
2019-02-18T14:00:20.209Z,36.80
2019-02-18T14:02:50.398Z,36.50
2019-02-18T14:05:22.904Z,37.80
2019-02-18T14:07:54.720Z,37.60
2019-02-18T14:10:25.325Z,37.70
2019-02-18T14:12:54.232Z,38.40
2019-02-18T14:15:23.172Z,38.80
2019-02-18T14:17:56.428Z,38.70
2019-02-18T14:20:29.962Z,38.20
2019-02-18T14:25:55.537Z,38.80
2019-02-18T14:28:26.010Z,39.70
2019-02-18T14:30:57.662Z,38.20
2019-02-18T14:33:28.792Z,38.60
2019-02-18T14:35:57.729Z,39.60
2019-02-18T14:38:28.355Z,39.40
2019-02-18T14:40:57.612Z,40.30
2019-02-18T14:43:27.823Z,40.40
2019-02-18T14:45:59.391Z,41.10
2019-02-18T14:48:30.848Z,41.30
2019-02-18T14:51:01.305Z,41.40
2019-02-18T14:53:34.587Z,42.30
2019-02-18T14:56:07.325Z,43.00
2019-02-18T14:58:40.712Z,43.80
2019-02-18T15:01:11.670Z,44.30
2019-02-18T15:03:40.341Z,44.70
2019-02-18T15:06:16.174Z,44.70
2019-02-18T15:08:45.758Z,46.40
2019-02-18T15:11:22.685Z,47.10
2019-02-18T15:13:57.074Z,47.20
2019-02-18T15:16:27.789Z,47.80
2019-02-18T15:18:59.494Z,48.90
2019-02-18T15:21:30.800Z,49.60
2019-02-18T15:23:59.612Z,50.40
2019-02-18T15:26:32.633Z,51.10
2019-02-18T15:29:02.355Z,51.70
2019-02-18T15:31:31.028Z,52.80
2019-02-18T15:34:01.720Z,54.00
2019-02-18T15:36:33.615Z,55.40
2019-02-18T15:39:07.058Z,56.50
2019-02-18T15:41:33.772Z,57.70
2019-02-18T15:44:03.248Z,59.20
2019-02-18T15:46:32.120Z,60.50
2019-02-18T15:49:01.520Z,62.30
2019-02-18T15:51:30.280Z,63.80
2019-02-18T15:53:59.430Z,65.60
2019-02-18T15:56:28.126Z,67.50
2019-02-18T15:58:56.880Z,69.00
2019-02-18T16:01:25.606Z,71.20
2019-02-18T16:03:55.000Z,73.00
2019-02-18T16:06:25.254Z,74.00
2019-02-18T16:08:54.533Z,75.90
2019-02-18T16:11:23.300Z,77.90
2019-02-18T16:13:55.947Z,78.70
2019-02-18T16:16:24.791Z,80.20
2019-02-18T16:18:54.958Z,82.70
2019-02-18T16:21:23.934Z,82.90
2019-02-18T16:23:52.678Z,83.30
2019-02-18T16:26:21.444Z,84.30
2019-02-18T16:28:50.799Z,85.50
2019-02-18T16:31:19.555Z,86.30
2019-02-18T16:33:48.406Z,84.70
2019-02-18T16:36:17.749Z,85.40
2019-02-18T16:38:46.532Z,86.30
2019-02-18T16:41:15.361Z,87.00
2019-02-18T16:43:44.046Z,87.70
2019-02-18T16:46:15.565Z,89.00
2019-02-18T16:48:44.904Z,89.90
2019-02-18T16:51:15.142Z,90.60
2019-02-18T16:53:43.862Z,91.00
2019-02-18T16:56:12.601Z,91.30
2019-02-18T16:58:41.314Z,91.50
2019-02-18T17:01:10.736Z,92.30
2019-02-18T17:03:39.748Z,92.20
2019-02-18T17:06:08.506Z,92.60
2019-02-18T17:08:47.254Z,93.00
2019-02-18T17:11:16.031Z,93.30
2019-02-18T17:13:44.742Z,93.50
2019-02-18T17:16:13.985Z,93.80
2019-02-18T17:18:42.703Z,94.00
2019-02-18T17:21:11.419Z,94.00
2019-02-18T17:23:40.002Z,94.20
2019-02-18T17:26:08.605Z,94.60
2019-02-18T17:28:37.257Z,95.10
2019-02-18T17:31:05.960Z,95.40
2019-02-18T17:33:34.739Z,95.50
2019-02-18T17:36:03.452Z,95.40
2019-02-18T17:38:32.114Z,95.90
2019-02-18T17:41:01.525Z,95.60
2019-02-18T17:43:30.247Z,95.80
2019-02-18T17:45:58.959Z,96.10
2019-02-18T17:48:28.291Z,96.40
2019-02-18T17:50:56.999Z,96.50
2019-02-18T17:53:25.739Z,96.50
2019-02-18T17:55:54.444Z,96.70
2019-02-18T17:58:23.160Z,96.80
2019-02-18T18:00:54.003Z,96.90
2019-02-18T18:03:23.210Z,97.30
2019-02-18T18:05:51.960Z,97.50
2019-02-18T18:08:20.676Z,97.80
2019-02-18T18:10:49.419Z,98.10
2019-02-18T18:13:25.002Z,98.40
2019-02-18T18:15:48.533Z,98.80
2019-02-18T18:18:17.847Z,98.80
2019-02-18T18:20:46.642Z,98.90
2019-02-18T18:23:15.628Z,99.10
2019-02-18T18:25:44.181Z,99.60
2019-02-18T18:28:12.863Z,99.40
2019-02-18T18:30:41.628Z,99.70
2019-02-18T18:33:10.337Z,99.90
2019-02-18T18:35:39.075Z,99.90
2019-02-18T18:38:07.799Z,99.90
2019-02-18T18:40:36.588Z,99.90
2019-02-18T18:43:05.294Z,99.90
2019-02-18T18:45:34.116Z,99.90
2019-02-18T18:48:02.876Z,99.90
2019-02-18T18:50:31.596Z,99.90
2019-02-18T18:53:00.363Z,99.90
2019-02-18T18:55:29.081Z,99.90
2019-02-18T18:57:57.842Z,99.90
2019-02-18T19:00:27.156Z,99.90
2019-02-18T19:02:55.977Z,99.90
2019-02-18T19:05:24.768Z,99.90
2019-02-18T19:07:53.521Z,99.90
2019-02-18T19:10:22.288Z,99.90
2019-02-18T19:12:51.107Z,99.90
2019-02-18T19:15:21.166Z,99.90
2019-02-18T19:17:50.069Z,99.90
2019-02-18T19:20:18.903Z,99.90
2019-02-18T19:22:47.659Z,99.90
2019-02-18T19:25:16.714Z,99.90
2019-02-18T19:27:45.500Z,99.90
2019-02-18T19:30:26.467Z,99.90
2019-02-18T19:32:55.235Z,99.90
2019-02-18T19:35:24.068Z,99.90
2019-02-18T19:37:53.653Z,99.90
2019-02-18T19:40:22.382Z,99.90
2019-02-18T19:42:51.091Z,99.90
2019-02-18T19:45:22.411Z,99.90
2019-02-18T19:47:51.120Z,99.90
2019-02-18T19:50:20.947Z,99.90
2019-02-18T19:52:49.970Z,99.90
2019-02-18T19:55:20.221Z,99.90
2019-02-18T19:57:49.137Z,99.90
2019-02-18T20:00:20.038Z,99.90
2019-02-18T20:02:50.422Z,99.90
2019-02-18T20:05:19.311Z,99.90
2019-02-18T20:07:48.256Z,99.90
2019-02-18T20:10:17.530Z,99.90
2019-02-18T20:12:46.647Z,99.90
2019-02-18T20:15:16.624Z,99.90
2019-02-18T20:17:45.674Z,99.90
2019-02-18T20:20:16.004Z,99.90
2019-02-18T20:22:45.201Z,99.90
2019-02-18T20:25:24.880Z,99.90
2019-02-18T20:27:53.862Z,99.90
2019-02-18T20:30:22.996Z,99.90
2019-02-18T20:32:52.398Z,99.90
2019-02-18T20:35:21.214Z,99.90
2019-02-18T20:37:50.772Z,99.90
2019-02-18T20:40:20.027Z,99.90
2019-02-18T20:42:55.006Z,99.90
2019-02-18T20:45:24.232Z,99.90
2019-02-18T20:47:55.123Z,99.90
2019-02-18T20:50:24.783Z,99.90
2019-02-18T20:52:53.924Z,99.90
2019-02-18T20:55:23.084Z,99.90
2019-02-18T20:57:52.150Z,99.90
2019-02-18T21:00:21.257Z,99.90
2019-02-18T21:02:50.171Z,99.90
2019-02-18T21:05:19.568Z,99.90
2019-02-18T21:10:59.999Z,99.90
2019-02-18T21:16:27.699Z,99.90
2019-02-18T21:19:05.209Z,99.90
2019-02-18T21:21:34.210Z,99.90
2019-02-18T21:24:04.711Z,99.90
2019-02-18T21:26:36.715Z,99.90
2019-02-18T21:29:06.664Z,99.90
2019-02-18T21:31:39.114Z,99.90
2019-02-18T21:34:24.941Z,99.90
2019-02-18T21:37:02.499Z,99.90
2019-02-18T21:39:31.285Z,99.90
2019-02-18T21:42:01.339Z,99.90
2019-02-18T21:44:33.270Z,99.90
2019-02-18T21:47:06.831Z,99.90
2019-02-18T21:49:36.170Z,99.90
2019-02-18T21:52:04.951Z,99.90
2019-02-18T21:54:33.679Z,99.90
2019-02-18T21:57:13.626Z,99.90
2019-02-18T22:00:01.879Z,99.90
2019-02-18T22:02:30.626Z,99.90
2019-02-18T22:04:59.903Z,99.90
2019-02-18T22:07:28.551Z,99.90
2019-02-18T22:09:57.181Z,99.90
2019-02-18T22:12:25.782Z,99.90
2019-02-18T22:14:54.434Z,99.90
2019-02-18T22:17:23.070Z,99.90
2019-02-18T22:19:51.693Z,99.90
2019-02-18T22:22:20.329Z,99.90
2019-02-18T22:24:49.253Z,99.90
2019-02-18T22:27:17.922Z,99.90
2019-02-18T22:29:46.586Z,99.90
2019-02-18T22:32:15.320Z,99.90
2019-02-18T22:34:44.025Z,99.90
2019-02-18T22:37:12.762Z,99.90
2019-02-18T22:39:41.740Z,99.90
2019-02-18T22:42:12.778Z,99.90
2019-02-18T22:44:42.120Z,99.90
2019-02-18T22:47:11.042Z,99.90
2019-02-18T22:49:39.721Z,99.90
2019-02-18T22:52:08.330Z,99.90
2019-02-18T22:54:36.923Z,99.90
2019-02-18T22:57:06.013Z,99.90
2019-02-18T22:59:34.918Z,99.90
2019-02-18T23:02:03.659Z,99.90
2019-02-18T23:04:32.294Z,99.90
2019-02-18T23:07:01.135Z,99.90
2019-02-18T23:09:29.843Z,99.90
2019-02-18T23:11:58.494Z,99.90
2019-02-18T23:14:27.330Z,99.90
2019-02-18T23:16:55.995Z,99.90
2019-02-18T23:19:24.727Z,99.90
2019-02-18T23:21:53.365Z,99.90
2019-02-18T23:24:22.074Z,99.90
2019-02-18T23:26:50.818Z,99.90
2019-02-18T23:29:19.451Z,99.90
2019-02-18T23:31:48.617Z,99.90
2019-02-18T23:34:17.257Z,99.90
2019-02-18T23:36:45.927Z,99.90
2019-02-18T23:39:14.566Z,99.90
2019-02-18T23:41:43.235Z,99.90
2019-02-18T23:44:11.870Z,99.90
2019-02-18T23:46:40.532Z,99.90
2019-02-18T23:49:09.167Z,99.90
2019-02-18T23:51:37.834Z,99.90
2019-02-18T23:54:06.495Z,99.90
2019-02-18T23:56:35.210Z,99.90
2019-02-18T23:59:03.934Z,99.90
